Pagrindinis puslapis
METAR-TAF:

METAR-TAF

Oro uostai :

Doha, Kataras

platuma: 25-15-40N, ilguma: 051-33-54E, Aukštis: 11 m

Dabartinis oras

Ataskaita buvo paskelbta 23 minutes, ne 13:00 UTC
Vėjas 11 kt iš Šiaurės Vakarų, svyruoja nuo Vakarų ir Šiaurės
Temperatūra 24°C
Drėgmė 36%
Slėgis 1014 hPa
Matomumas 10 km arba daugiau
nėra debesų žemiau 1500 m ir nėra kamuolinių lietaus debesų

METAR: OTBD 281300Z AUTO 31011KT 270V350 CAVOK 24/08 Q1014 NOSIG

Laikas: 16:23 (13:23 UTC)

Prognozė

Ataskaita buvo paskelbta 2 valandos ir 23 minutes, ne 11:00 UTC
Prognozė galioja nuo 28 metu 12 UTC su 29 metu 18 UTC
Vėjas 15 kt iš Šiaurės/Šiaurės Vakarų
Matomumas 10 km arba daugiau
nėra debesų žemiau 1500 m ir nėra kamuolinių lietaus debesų
Tapsmas
nuo 28 metu 23 UTC su 29 metu 01 UTC
Vėjas 6 kt iš Vakarų/Šiaurės Vakarų
Tapsmas
nuo 29 metu 11 UTC su 29 metu 13 UTC
Vėjas 8 kt iš Šiaurės Rytų

TAF: OTBD 281100Z 2812/2918 33015KT CAVOK BECMG 2823/2901 30006KT BECMG 2911/2913 05008KT

Orai ataskaitas ir orų prognozės (METAR, TAF).

turimą stotys yra geltonos ir raudonos taškus žemėlapyje.

Perkelti pele per norėdami pamatyti stoties vardą.

Tada spustelėkite, norėdami matyti oro stebėjimo ir prognozės.

Norėdami pakeisti žemėlapį: spustelėkite ant žalios mygtukų su juodo kryžiaus žemyn,; žalią mygtuką su brūkšneliu, jei norite nutolinti; arba žalių rodyklių gretimoms žemėlapius.


METAR-TAF: